sensor_id;sensor_type;location;lat;lon;timestamp;temperature;humidity
76613;DHT22;65507;48.454;-2.058;2022-12-18T00:01:37;0.00;76.80
76613;DHT22;65507;48.454;-2.058;2022-12-18T00:04:04;0.00;76.80
76613;DHT22;65507;48.454;-2.058;2022-12-18T00:06:31;0.00;76.80
76613;DHT22;65507;48.454;-2.058;2022-12-18T00:08:59;0.00;76.80
76613;DHT22;65507;48.454;-2.058;2022-12-18T00:11:27;-0.10;76.70
76613;DHT22;65507;48.454;-2.058;2022-12-18T00:13:56;-0.10;76.80
76613;DHT22;65507;48.454;-2.058;2022-12-18T00:16:24;-0.10;76.70
76613;DHT22;65507;48.454;-2.058;2022-12-18T00:18:52;0.00;76.80
76613;DHT22;65507;48.454;-2.058;2022-12-18T00:21:18;-0.10;76.70
76613;DHT22;65507;48.454;-2.058;2022-12-18T00:23:45;-0.10;76.70
76613;DHT22;65507;48.454;-2.058;2022-12-18T00:26:14;-0.10;76.80
76613;DHT22;65507;48.454;-2.058;2022-12-18T00:28:40;-0.10;76.80
76613;DHT22;65507;48.454;-2.058;2022-12-18T00:31:12;-0.10;76.80
76613;DHT22;65507;48.454;-2.058;2022-12-18T00:33:38;-0.10;76.80
76613;DHT22;65507;48.454;-2.058;2022-12-18T00:36:12;-0.10;76.70
76613;DHT22;65507;48.454;-2.058;2022-12-18T00:38:39;-0.10;76.80
76613;DHT22;65507;48.454;-2.058;2022-12-18T00:41:06;-0.10;76.80
76613;DHT22;65507;48.454;-2.058;2022-12-18T00:43:33;-0.10;76.80
76613;DHT22;65507;48.454;-2.058;2022-12-18T00:45:59;-0.10;76.80
76613;DHT22;65507;48.454;-2.058;2022-12-18T00:48:24;-0.10;76.80
76613;DHT22;65507;48.454;-2.058;2022-12-18T00:50:50;-0.10;76.80
76613;DHT22;65507;48.454;-2.058;2022-12-18T00:53:17;-0.20;76.80
76613;DHT22;65507;48.454;-2.058;2022-12-18T00:55:43;-0.20;76.80
76613;DHT22;65507;48.454;-2.058;2022-12-18T00:58:10;-0.20;76.90
76613;DHT22;65507;48.454;-2.058;2022-12-18T01:00:36;-0.20;77.00
76613;DHT22;65507;48.454;-2.058;2022-12-18T01:03:03;-0.20;77.00
76613;DHT22;65507;48.454;-2.058;2022-12-18T01:05:30;-0.20;77.10
76613;DHT22;65507;48.454;-2.058;2022-12-18T01:07:56;-0.20;77.00
76613;DHT22;65507;48.454;-2.058;2022-12-18T01:10:23;-0.20;77.00
76613;DHT22;65507;48.454;-2.058;2022-12-18T01:12:49;-0.30;77.00
76613;DHT22;65507;48.454;-2.058;2022-12-18T01:15:15;-0.20;77.00
76613;DHT22;65507;48.454;-2.058;2022-12-18T01:17:42;-0.20;77.00
76613;DHT22;65507;48.454;-2.058;2022-12-18T01:20:11;-0.20;77.00
76613;DHT22;65507;48.454;-2.058;2022-12-18T01:22:37;-0.20;77.00
76613;DHT22;65507;48.454;-2.058;2022-12-18T01:25:04;-0.20;76.90
76613;DHT22;65507;48.454;-2.058;2022-12-18T01:27:30;-0.20;76.90
76613;DHT22;65507;48.454;-2.058;2022-12-18T01:29:55;-0.20;76.90
76613;DHT22;65507;48.454;-2.058;2022-12-18T01:32:21;-0.20;76.90
76613;DHT22;65507;48.454;-2.058;2022-12-18T01:34:47;-0.10;77.00
76613;DHT22;65507;48.454;-2.058;2022-12-18T01:37:13;-0.10;77.00
76613;DHT22;65507;48.454;-2.058;2022-12-18T01:39:39;0.00;76.90
76613;DHT22;65507;48.454;-2.058;2022-12-18T01:42:13;0.00;76.80
76613;DHT22;65507;48.454;-2.058;2022-12-18T01:47:49;0.00;76.80
76613;DHT22;65507;48.454;-2.058;2022-12-18T01:50:37;0.00;76.80
76613;DHT22;65507;48.454;-2.058;2022-12-18T01:53:14;0.10;76.90
76613;DHT22;65507;48.454;-2.058;2022-12-18T01:55:53;0.10;76.80
76613;DHT22;65507;48.454;-2.058;2022-12-18T01:58:21;0.10;76.80
76613;DHT22;65507;48.454;-2.058;2022-12-18T02:00:49;0.10;76.80
76613;DHT22;65507;48.454;-2.058;2022-12-18T02:03:15;0.10;76.80
76613;DHT22;65507;48.454;-2.058;2022-12-18T02:08:39;0.20;76.90
76613;DHT22;65507;48.454;-2.058;2022-12-18T02:14:48;0.20;76.70
76613;DHT22;65507;48.454;-2.058;2022-12-18T02:17:03;0.20;76.60
76613;DHT22;65507;48.454;-2.058;2022-12-18T02:27:31;0.30;76.80
76613;DHT22;65507;48.454;-2.058;2022-12-18T02:29:59;0.30;76.80
76613;DHT22;65507;48.454;-2.058;2022-12-18T02:32:30;0.20;76.90
76613;DHT22;65507;48.454;-2.058;2022-12-18T02:34:58;0.20;76.90
76613;DHT22;65507;48.454;-2.058;2022-12-18T02:37:26;0.20;76.90
76613;DHT22;65507;48.454;-2.058;2022-12-18T02:39:55;0.20;76.90
76613;DHT22;65507;48.454;-2.058;2022-12-18T02:42:22;0.20;76.90
76613;DHT22;65507;48.454;-2.058;2022-12-18T02:44:50;0.20;76.90
76613;DHT22;65507;48.454;-2.058;2022-12-18T02:47:27;0.20;77.00
76613;DHT22;65507;48.454;-2.058;2022-12-18T02:58:26;0.10;77.10
76613;DHT22;65507;48.454;-2.058;2022-12-18T03:01:43;0.10;77.00
76613;DHT22;65507;48.454;-2.058;2022-12-18T03:04:04;0.10;77.00
76613;DHT22;65507;48.454;-2.058;2022-12-18T03:06:44;0.20;77.00
76613;DHT22;65507;48.454;-2.058;2022-12-18T03:09:19;0.20;76.90
76613;DHT22;65507;48.454;-2.058;2022-12-18T03:11:51;0.20;76.90
76613;DHT22;65507;48.454;-2.058;2022-12-18T03:14:38;0.80;78.00
76613;DHT22;65507;48.454;-2.058;2022-12-18T03:17:11;0.20;76.80
76613;DHT22;65507;48.454;-2.058;2022-12-18T03:19:39;0.20;76.80
76613;DHT22;65507;48.454;-2.058;2022-12-18T03:22:07;0.20;76.90
76613;DHT22;65507;48.454;-2.058;2022-12-18T03:24:35;0.20;76.90
76613;DHT22;65507;48.454;-2.058;2022-12-18T03:27:08;0.20;76.90
76613;DHT22;65507;48.454;-2.058;2022-12-18T03:29:39;0.20;76.90
76613;DHT22;65507;48.454;-2.058;2022-12-18T03:32:11;0.30;76.90
76613;DHT22;65507;48.454;-2.058;2022-12-18T03:34:42;0.30;76.80
76613;DHT22;65507;48.454;-2.058;2022-12-18T03:37:12;0.30;76.90
76613;DHT22;65507;48.454;-2.058;2022-12-18T03:39:38;0.30;76.90
76613;DHT22;65507;48.454;-2.058;2022-12-18T03:42:27;0.30;76.80
76613;DHT22;65507;48.454;-2.058;2022-12-18T03:45:11;0.30;76.80
76613;DHT22;65507;48.454;-2.058;2022-12-18T03:48:01;0.40;76.80
76613;DHT22;65507;48.454;-2.058;2022-12-18T03:50:41;0.30;76.70
76613;DHT22;65507;48.454;-2.058;2022-12-18T03:53:26;0.30;76.70
76613;DHT22;65507;48.454;-2.058;2022-12-18T03:55:53;0.40;76.80
76613;DHT22;65507;48.454;-2.058;2022-12-18T03:58:24;0.40;76.80
76613;DHT22;65507;48.454;-2.058;2022-12-18T04:00:52;0.40;76.80
76613;DHT22;65507;48.454;-2.058;2022-12-18T04:03:19;0.40;76.70
76613;DHT22;65507;48.454;-2.058;2022-12-18T04:05:46;0.40;76.80
76613;DHT22;65507;48.454;-2.058;2022-12-18T04:08:13;0.40;76.80
76613;DHT22;65507;48.454;-2.058;2022-12-18T04:10:39;0.50;76.70
76613;DHT22;65507;48.454;-2.058;2022-12-18T04:13:05;0.50;76.60
76613;DHT22;65507;48.454;-2.058;2022-12-18T04:15:33;0.60;76.60
76613;DHT22;65507;48.454;-2.058;2022-12-18T04:17:59;0.60;76.60
76613;DHT22;65507;48.454;-2.058;2022-12-18T04:20:25;0.60;76.50
76613;DHT22;65507;48.454;-2.058;2022-12-18T04:22:51;0.60;76.50
76613;DHT22;65507;48.454;-2.058;2022-12-18T04:25:17;0.70;76.60
76613;DHT22;65507;48.454;-2.058;2022-12-18T04:27:43;0.60;76.50
76613;DHT22;65507;48.454;-2.058;2022-12-18T04:30:09;0.70;76.70
76613;DHT22;65507;48.454;-2.058;2022-12-18T04:32:35;0.60;76.70
76613;DHT22;65507;48.454;-2.058;2022-12-18T04:35:00;0.60;77.60
76613;DHT22;65507;48.454;-2.058;2022-12-18T04:37:26;0.70;76.80
76613;DHT22;65507;48.454;-2.058;2022-12-18T04:39:52;0.80;76.70
76613;DHT22;65507;48.454;-2.058;2022-12-18T04:42:17;0.80;76.60
76613;DHT22;65507;48.454;-2.058;2022-12-18T04:44:43;0.90;76.50
76613;DHT22;65507;48.454;-2.058;2022-12-18T04:47:10;0.90;76.50
76613;DHT22;65507;48.454;-2.058;2022-12-18T04:49:35;0.90;76.40
76613;DHT22;65507;48.454;-2.058;2022-12-18T04:52:01;1.00;76.50
76613;DHT22;65507;48.454;-2.058;2022-12-18T04:54:27;1.00;76.50
76613;DHT22;65507;48.454;-2.058;2022-12-18T04:56:52;1.00;76.50
76613;DHT22;65507;48.454;-2.058;2022-12-18T04:59:18;1.00;76.50
76613;DHT22;65507;48.454;-2.058;2022-12-18T05:01:44;1.10;76.50
76613;DHT22;65507;48.454;-2.058;2022-12-18T05:04:11;1.10;76.50
76613;DHT22;65507;48.454;-2.058;2022-12-18T05:06:36;1.10;76.60
76613;DHT22;65507;48.454;-2.058;2022-12-18T05:09:02;1.10;76.60
76613;DHT22;65507;48.454;-2.058;2022-12-18T05:11:28;1.10;76.60
76613;DHT22;65507;48.454;-2.058;2022-12-18T05:13:56;1.10;76.60
76613;DHT22;65507;48.454;-2.058;2022-12-18T05:16:22;1.10;76.60
76613;DHT22;65507;48.454;-2.058;2022-12-18T05:18:48;1.10;76.60
76613;DHT22;65507;48.454;-2.058;2022-12-18T05:21:14;1.20;76.60
76613;DHT22;65507;48.454;-2.058;2022-12-18T05:23:39;1.20;76.60
76613;DHT22;65507;48.454;-2.058;2022-12-18T05:26:06;1.20;76.60
76613;DHT22;65507;48.454;-2.058;2022-12-18T05:28:34;1.20;76.70
76613;DHT22;65507;48.454;-2.058;2022-12-18T05:31:02;1.20;76.60
76613;DHT22;65507;48.454;-2.058;2022-12-18T05:33:30;1.20;76.70
76613;DHT22;65507;48.454;-2.058;2022-12-18T05:36:02;1.20;76.70
76613;DHT22;65507;48.454;-2.058;2022-12-18T05:38:28;1.30;76.70
76613;DHT22;65507;48.454;-2.058;2022-12-18T05:40:55;1.30;76.70
76613;DHT22;65507;48.454;-2.058;2022-12-18T05:43:22;1.30;76.70
76613;DHT22;65507;48.454;-2.058;2022-12-18T05:45:49;1.30;76.80
76613;DHT22;65507;48.454;-2.058;2022-12-18T05:48:15;1.30;76.70
76613;DHT22;65507;48.454;-2.058;2022-12-18T05:50:42;1.40;76.70
76613;DHT22;65507;48.454;-2.058;2022-12-18T05:53:08;1.40;76.60
76613;DHT22;65507;48.454;-2.058;2022-12-18T05:55:39;1.40;76.70
76613;DHT22;65507;48.454;-2.058;2022-12-18T05:58:07;1.40;76.70
76613;DHT22;65507;48.454;-2.058;2022-12-18T06:00:38;1.40;76.70
76613;DHT22;65507;48.454;-2.058;2022-12-18T06:03:08;1.50;76.70
76613;DHT22;65507;48.454;-2.058;2022-12-18T06:05:36;1.50;76.70
76613;DHT22;65507;48.454;-2.058;2022-12-18T06:08:02;1.50;76.70
76613;DHT22;65507;48.454;-2.058;2022-12-18T06:10:28;1.50;76.70
76613;DHT22;65507;48.454;-2.058;2022-12-18T06:12:54;1.60;76.70
76613;DHT22;65507;48.454;-2.058;2022-12-18T06:15:20;1.60;76.70
76613;DHT22;65507;48.454;-2.058;2022-12-18T06:17:45;1.60;76.70
76613;DHT22;65507;48.454;-2.058;2022-12-18T06:20:11;1.60;76.70
76613;DHT22;65507;48.454;-2.058;2022-12-18T06:22:37;1.60;76.70
76613;DHT22;65507;48.454;-2.058;2022-12-18T06:25:03;1.60;76.80
76613;DHT22;65507;48.454;-2.058;2022-12-18T06:27:29;1.60;76.70
76613;DHT22;65507;48.454;-2.058;2022-12-18T06:29:55;1.70;76.80
76613;DHT22;65507;48.454;-2.058;2022-12-18T06:32:20;1.70;76.80
76613;DHT22;65507;48.454;-2.058;2022-12-18T06:34:46;1.60;76.80
76613;DHT22;65507;48.454;-2.058;2022-12-18T06:37:12;1.70;76.80
76613;DHT22;65507;48.454;-2.058;2022-12-18T06:39:38;1.70;76.80
76613;DHT22;65507;48.454;-2.058;2022-12-18T06:42:03;1.80;76.80
76613;DHT22;65507;48.454;-2.058;2022-12-18T06:44:29;1.80;76.80
76613;DHT22;65507;48.454;-2.058;2022-12-18T06:46:55;1.80;76.80
76613;DHT22;65507;48.454;-2.058;2022-12-18T06:49:21;1.80;76.80
76613;DHT22;65507;48.454;-2.058;2022-12-18T06:51:47;1.80;76.80
76613;DHT22;65507;48.454;-2.058;2022-12-18T06:54:12;1.80;76.80
76613;DHT22;65507;48.454;-2.058;2022-12-18T06:56:38;1.80;76.90
76613;DHT22;65507;48.454;-2.058;2022-12-18T06:59:04;1.90;77.00
76613;DHT22;65507;48.454;-2.058;2022-12-18T07:01:29;1.90;77.00
76613;DHT22;65507;48.454;-2.058;2022-12-18T07:03:56;1.80;77.00
76613;DHT22;65507;48.454;-2.058;2022-12-18T07:06:24;1.90;77.10
76613;DHT22;65507;48.454;-2.058;2022-12-18T07:08:50;1.90;77.10
76613;DHT22;65507;48.454;-2.058;2022-12-18T07:11:17;1.90;77.10
76613;DHT22;65507;48.454;-2.058;2022-12-18T07:13:43;1.90;77.10
76613;DHT22;65507;48.454;-2.058;2022-12-18T07:16:11;2.00;77.10
76613;DHT22;65507;48.454;-2.058;2022-12-18T07:18:37;2.00;77.10
76613;DHT22;65507;48.454;-2.058;2022-12-18T07:21:08;2.00;77.10
76613;DHT22;65507;48.454;-2.058;2022-12-18T07:23:34;2.00;77.10
76613;DHT22;65507;48.454;-2.058;2022-12-18T07:26:04;2.00;77.20
76613;DHT22;65507;48.454;-2.058;2022-12-18T07:28:32;2.00;77.20
76613;DHT22;65507;48.454;-2.058;2022-12-18T07:30:58;2.00;77.30
76613;DHT22;65507;48.454;-2.058;2022-12-18T07:33:24;2.00;77.30
76613;DHT22;65507;48.454;-2.058;2022-12-18T07:35:51;2.00;77.30
76613;DHT22;65507;48.454;-2.058;2022-12-18T07:38:16;2.10;77.40
76613;DHT22;65507;48.454;-2.058;2022-12-18T07:40:42;2.10;77.40
76613;DHT22;65507;48.454;-2.058;2022-12-18T07:43:08;2.10;77.40
76613;DHT22;65507;48.454;-2.058;2022-12-18T07:45:33;2.10;77.30
76613;DHT22;65507;48.454;-2.058;2022-12-18T07:47:59;2.20;77.40
76613;DHT22;65507;48.454;-2.058;2022-12-18T07:50:25;2.20;77.40
76613;DHT22;65507;48.454;-2.058;2022-12-18T07:52:50;2.20;77.40
76613;DHT22;65507;48.454;-2.058;2022-12-18T07:55:16;2.20;77.50
76613;DHT22;65507;48.454;-2.058;2022-12-18T07:57:42;2.20;77.50
76613;DHT22;65507;48.454;-2.058;2022-12-18T08:00:08;2.20;77.60
76613;DHT22;65507;48.454;-2.058;2022-12-18T08:02:34;2.20;77.60
76613;DHT22;65507;48.454;-2.058;2022-12-18T08:04:59;2.20;77.60
76613;DHT22;65507;48.454;-2.058;2022-12-18T08:07:25;2.30;77.70
76613;DHT22;65507;48.454;-2.058;2022-12-18T08:09:51;2.30;77.70
76613;DHT22;65507;48.454;-2.058;2022-12-18T08:12:16;2.30;78.60
76613;DHT22;65507;48.454;-2.058;2022-12-18T08:14:42;2.30;77.70
76613;DHT22;65507;48.454;-2.058;2022-12-18T08:17:08;2.40;77.80
76613;DHT22;65507;48.454;-2.058;2022-12-18T08:19:33;2.40;77.70
76613;DHT22;65507;48.454;-2.058;2022-12-18T08:21:59;2.40;77.70
76613;DHT22;65507;48.454;-2.058;2022-12-18T08:24:25;2.50;77.70
76613;DHT22;65507;48.454;-2.058;2022-12-18T08:26:51;2.50;77.70
76613;DHT22;65507;48.454;-2.058;2022-12-18T08:29:17;2.60;77.70
76613;DHT22;65507;48.454;-2.058;2022-12-18T08:31:42;2.60;77.70
76613;DHT22;65507;48.454;-2.058;2022-12-18T08:34:08;2.60;77.70
76613;DHT22;65507;48.454;-2.058;2022-12-18T08:36:34;2.60;77.70
76613;DHT22;65507;48.454;-2.058;2022-12-18T08:39:02;2.70;77.70
76613;DHT22;65507;48.454;-2.058;2022-12-18T08:41:27;2.70;77.80
76613;DHT22;65507;48.454;-2.058;2022-12-18T08:43:53;2.70;77.80
76613;DHT22;65507;48.454;-2.058;2022-12-18T08:46:39;2.80;77.90
76613;DHT22;65507;48.454;-2.058;2022-12-18T08:49:06;2.80;77.80
76613;DHT22;65507;48.454;-2.058;2022-12-18T08:51:33;2.80;77.80
76613;DHT22;65507;48.454;-2.058;2022-12-18T08:53:59;2.80;77.80
76613;DHT22;65507;48.454;-2.058;2022-12-18T08:56:25;2.90;77.90
76613;DHT22;65507;48.454;-2.058;2022-12-18T08:58:54;2.90;77.90
76613;DHT22;65507;48.454;-2.058;2022-12-18T09:01:20;2.90;77.90
76613;DHT22;65507;48.454;-2.058;2022-12-18T09:03:47;2.90;78.00
76613;DHT22;65507;48.454;-2.058;2022-12-18T09:06:17;2.90;78.00
76613;DHT22;65507;48.454;-2.058;2022-12-18T09:08:46;2.90;78.10
76613;DHT22;65507;48.454;-2.058;2022-12-18T09:11:22;2.90;78.00
76613;DHT22;65507;48.454;-2.058;2022-12-18T09:13:49;3.00;78.10
76613;DHT22;65507;48.454;-2.058;2022-12-18T09:16:16;3.00;78.00
76613;DHT22;65507;48.454;-2.058;2022-12-18T09:18:42;3.00;78.00
76613;DHT22;65507;48.454;-2.058;2022-12-18T09:21:19;3.10;78.10
76613;DHT22;65507;48.454;-2.058;2022-12-18T09:23:52;3.10;78.10
76613;DHT22;65507;48.454;-2.058;2022-12-18T09:26:19;3.10;78.10
76613;DHT22;65507;48.454;-2.058;2022-12-18T09:28:44;3.10;78.40
76613;DHT22;65507;48.454;-2.058;2022-12-18T09:31:18;3.10;78.20
76613;DHT22;65507;48.454;-2.058;2022-12-18T09:33:44;3.20;78.30
76613;DHT22;65507;48.454;-2.058;2022-12-18T09:36:13;3.20;78.20
76613;DHT22;65507;48.454;-2.058;2022-12-18T09:38:39;3.20;78.20
76613;DHT22;65507;48.454;-2.058;2022-12-18T09:41:19;3.20;78.30
76613;DHT22;65507;48.454;-2.058;2022-12-18T09:43:49;3.20;78.40
76613;DHT22;65507;48.454;-2.058;2022-12-18T09:46:20;3.20;78.50
76613;DHT22;65507;48.454;-2.058;2022-12-18T09:48:52;3.20;78.50
76613;DHT22;65507;48.454;-2.058;2022-12-18T09:51:27;3.20;78.50
76613;DHT22;65507;48.454;-2.058;2022-12-18T09:53:59;3.30;78.60
76613;DHT22;65507;48.454;-2.058;2022-12-18T09:56:28;3.30;78.60
76613;DHT22;65507;48.454;-2.058;2022-12-18T09:59:02;3.30;78.50
76613;DHT22;65507;48.454;-2.058;2022-12-18T10:01:29;3.30;78.50
76613;DHT22;65507;48.454;-2.058;2022-12-18T10:03:56;3.30;78.40
76613;DHT22;65507;48.454;-2.058;2022-12-18T10:07:02;3.40;78.50
76613;DHT22;65507;48.454;-2.058;2022-12-18T10:09:37;3.40;78.50
76613;DHT22;65507;48.454;-2.058;2022-12-18T10:17:54;3.50;78.40
76613;DHT22;65507;48.454;-2.058;2022-12-18T10:20:38;3.60;78.40
76613;DHT22;65507;48.454;-2.058;2022-12-18T10:23:12;3.60;78.40
76613;DHT22;65507;48.454;-2.058;2022-12-18T10:25:57;3.70;78.40
76613;DHT22;65507;48.454;-2.058;2022-12-18T10:28:26;3.70;78.40
76613;DHT22;65507;48.454;-2.058;2022-12-18T10:30:54;3.70;78.40
76613;DHT22;65507;48.454;-2.058;2022-12-18T10:33:22;3.80;78.40
76613;DHT22;65507;48.454;-2.058;2022-12-18T10:35:51;3.80;78.40
76613;DHT22;65507;48.454;-2.058;2022-12-18T10:51:06;4.10;78.60
76613;DHT22;65507;48.454;-2.058;2022-12-18T10:53:34;4.10;78.50
76613;DHT22;65507;48.454;-2.058;2022-12-18T10:56:00;4.10;78.50
76613;DHT22;65507;48.454;-2.058;2022-12-18T10:58:33;4.20;78.60
76613;DHT22;65507;48.454;-2.058;2022-12-18T11:01:04;4.20;79.50
76613;DHT22;65507;48.454;-2.058;2022-12-18T11:06:22;4.20;78.70
76613;DHT22;65507;48.454;-2.058;2022-12-18T11:09:17;4.20;78.70
76613;DHT22;65507;48.454;-2.058;2022-12-18T11:11:52;4.20;78.80
76613;DHT22;65507;48.454;-2.058;2022-12-18T11:17:22;4.30;78.80
76613;DHT22;65507;48.454;-2.058;2022-12-18T11:19:55;4.30;78.80
76613;DHT22;65507;48.454;-2.058;2022-12-18T11:22:28;4.40;78.90
76613;DHT22;65507;48.454;-2.058;2022-12-18T11:25:01;4.30;78.80
76613;DHT22;65507;48.454;-2.058;2022-12-18T11:27:28;4.40;78.90
76613;DHT22;65507;48.454;-2.058;2022-12-18T11:30:21;4.40;78.90
76613;DHT22;65507;48.454;-2.058;2022-12-18T11:35:49;4.50;78.90
76613;DHT22;65507;48.454;-2.058;2022-12-18T11:38:28;4.50;79.00
76613;DHT22;65507;48.454;-2.058;2022-12-18T11:41:05;4.40;79.00
76613;DHT22;65507;48.454;-2.058;2022-12-18T11:43:44;4.50;79.10
76613;DHT22;65507;48.454;-2.058;2022-12-18T11:46:15;4.50;79.10
76613;DHT22;65507;48.454;-2.058;2022-12-18T11:51:32;4.40;79.20
76613;DHT22;65507;48.454;-2.058;2022-12-18T11:54:00;4.40;79.30
76613;DHT22;65507;48.454;-2.058;2022-12-18T11:56:34;4.40;79.30
76613;DHT22;65507;48.454;-2.058;2022-12-18T11:59:26;4.40;79.40
76613;DHT22;65507;48.454;-2.058;2022-12-18T12:02:11;4.50;79.50
76613;DHT22;65507;48.454;-2.058;2022-12-18T12:05:05;4.50;79.40
76613;DHT22;65507;48.454;-2.058;2022-12-18T12:07:51;4.50;79.40
76613;DHT22;65507;48.454;-2.058;2022-12-18T12:10:46;4.60;79.30
76613;DHT22;65507;48.454;-2.058;2022-12-18T12:16:04;4.60;79.30
76613;DHT22;65507;48.454;-2.058;2022-12-18T12:21:40;4.70;79.40
76613;DHT22;65507;48.454;-2.058;2022-12-18T12:26:54;4.80;79.20
76613;DHT22;65507;48.454;-2.058;2022-12-18T12:39:47;5.20;79.00
76613;DHT22;65507;48.454;-2.058;2022-12-18T12:42:29;5.20;78.90
76613;DHT22;65507;48.454;-2.058;2022-12-18T12:45:53;5.30;78.90
76613;DHT22;65507;48.454;-2.058;2022-12-18T12:48:46;5.90;79.20
76613;DHT22;65507;48.454;-2.058;2022-12-18T12:51:34;5.40;78.90
76613;DHT22;65507;48.454;-2.058;2022-12-18T12:54:03;5.50;79.00
76613;DHT22;65507;48.454;-2.058;2022-12-18T12:56:42;5.50;78.90
76613;DHT22;65507;48.454;-2.058;2022-12-18T12:59:25;5.50;79.00
76613;DHT22;65507;48.454;-2.058;2022-12-18T13:02:18;5.50;79.00
76613;DHT22;65507;48.454;-2.058;2022-12-18T13:07:14;5.60;79.10
76613;DHT22;65507;48.454;-2.058;2022-12-18T13:12:51;5.60;79.20
76613;DHT22;65507;48.454;-2.058;2022-12-18T13:15:29;5.60;80.20
76613;DHT22;65507;48.454;-2.058;2022-12-18T13:20:35;5.60;79.30
76613;DHT22;65507;48.454;-2.058;2022-12-18T13:25:54;5.70;79.50
76613;DHT22;65507;48.454;-2.058;2022-12-18T13:29:06;5.70;79.50
76613;DHT22;65507;48.454;-2.058;2022-12-18T13:31:07;5.70;79.50
76613;DHT22;65507;48.454;-2.058;2022-12-18T13:33:45;5.70;79.50
76613;DHT22;65507;48.454;-2.058;2022-12-18T13:36:37;5.80;80.50
76613;DHT22;65507;48.454;-2.058;2022-12-18T13:41:48;5.80;79.60
76613;DHT22;65507;48.454;-2.058;2022-12-18T13:46:58;5.80;79.50
76613;DHT22;65507;48.454;-2.058;2022-12-18T13:51:57;5.90;79.50
76613;DHT22;65507;48.454;-2.058;2022-12-18T13:57:02;6.00;79.60
76613;DHT22;65507;48.454;-2.058;2022-12-18T13:59:36;6.00;79.60
76613;DHT22;65507;48.454;-2.058;2022-12-18T14:02:21;6.00;79.70
76613;DHT22;65507;48.454;-2.058;2022-12-18T14:04:48;6.00;79.80
76613;DHT22;65507;48.454;-2.058;2022-12-18T14:07:15;6.00;79.70
76613;DHT22;65507;48.454;-2.058;2022-12-18T14:09:47;6.10;79.80
76613;DHT22;65507;48.454;-2.058;2022-12-18T14:12:17;6.10;79.80
76613;DHT22;65507;48.454;-2.058;2022-12-18T14:15:02;6.10;79.70
76613;DHT22;65507;48.454;-2.058;2022-12-18T14:17:28;6.20;79.80
76613;DHT22;65507;48.454;-2.058;2022-12-18T14:19:54;6.20;79.70
76613;DHT22;65507;48.454;-2.058;2022-12-18T14:22:21;6.20;79.80
76613;DHT22;65507;48.454;-2.058;2022-12-18T14:27:41;6.20;80.00
76613;DHT22;65507;48.454;-2.058;2022-12-18T14:33:00;6.30;80.00
76613;DHT22;65507;48.454;-2.058;2022-12-18T14:35:26;6.30;80.00
76613;DHT22;65507;48.454;-2.058;2022-12-18T14:37:52;6.30;80.00
76613;DHT22;65507;48.454;-2.058;2022-12-18T14:40:18;6.30;80.00
76613;DHT22;65507;48.454;-2.058;2022-12-18T14:42:44;6.30;80.10
76613;DHT22;65507;48.454;-2.058;2022-12-18T14:45:35;6.30;80.20
76613;DHT22;65507;48.454;-2.058;2022-12-18T14:48:39;6.30;80.20
76613;DHT22;65507;48.454;-2.058;2022-12-18T14:51:17;6.30;80.20
76613;DHT22;65507;48.454;-2.058;2022-12-18T14:53:46;6.30;80.20
76613;DHT22;65507;48.454;-2.058;2022-12-18T14:58:38;6.40;80.30
76613;DHT22;65507;48.454;-2.058;2022-12-18T15:01:05;6.40;80.40
76613;DHT22;65507;48.454;-2.058;2022-12-18T15:03:31;6.30;80.40
76613;DHT22;65507;48.454;-2.058;2022-12-18T15:06:21;6.40;80.50
76613;DHT22;65507;48.454;-2.058;2022-12-18T15:08:49;6.40;80.50
76613;DHT22;65507;48.454;-2.058;2022-12-18T15:11:59;6.40;80.50
76613;DHT22;65507;48.454;-2.058;2022-12-18T15:14:39;6.50;80.60
76613;DHT22;65507;48.454;-2.058;2022-12-18T15:17:18;6.50;80.60
76613;DHT22;65507;48.454;-2.058;2022-12-18T15:19:46;6.50;80.50
76613;DHT22;65507;48.454;-2.058;2022-12-18T15:24:57;6.60;80.50
76613;DHT22;65507;48.454;-2.058;2022-12-18T15:27:36;6.60;80.30
76613;DHT22;65507;48.454;-2.058;2022-12-18T15:32:36;6.60;80.40
76613;DHT22;65507;48.454;-2.058;2022-12-18T15:37:37;6.60;80.50
76613;DHT22;65507;48.454;-2.058;2022-12-18T15:40:07;6.70;80.60
76613;DHT22;65507;48.454;-2.058;2022-12-18T15:42:34;6.70;80.70
76613;DHT22;65507;48.454;-2.058;2022-12-18T15:45:18;6.70;80.60
76613;DHT22;65507;48.454;-2.058;2022-12-18T15:47:44;6.70;80.60
76613;DHT22;65507;48.454;-2.058;2022-12-18T15:50:10;6.80;80.60
76613;DHT22;65507;48.454;-2.058;2022-12-18T15:52:46;6.80;80.70
76613;DHT22;65507;48.454;-2.058;2022-12-18T15:55:21;6.80;80.70
76613;DHT22;65507;48.454;-2.058;2022-12-18T15:58:07;6.80;80.80
76613;DHT22;65507;48.454;-2.058;2022-12-18T16:00:34;6.80;80.70
76613;DHT22;65507;48.454;-2.058;2022-12-18T16:03:00;6.80;80.70
76613;DHT22;65507;48.454;-2.058;2022-12-18T16:05:26;6.90;80.70
76613;DHT22;65507;48.454;-2.058;2022-12-18T16:07:52;6.90;81.70
76613;DHT22;65507;48.454;-2.058;2022-12-18T16:10:19;7.00;80.80
76613;DHT22;65507;48.454;-2.058;2022-12-18T16:12:44;7.00;80.70
76613;DHT22;65507;48.454;-2.058;2022-12-18T16:15:12;7.00;80.70
76613;DHT22;65507;48.454;-2.058;2022-12-18T16:17:39;7.10;81.70
76613;DHT22;65507;48.454;-2.058;2022-12-18T16:20:16;7.10;80.70
76613;DHT22;65507;48.454;-2.058;2022-12-18T16:22:44;7.10;80.70
76613;DHT22;65507;48.454;-2.058;2022-12-18T16:25:21;7.20;80.70
76613;DHT22;65507;48.454;-2.058;2022-12-18T16:27:48;7.20;80.70
76613;DHT22;65507;48.454;-2.058;2022-12-18T16:30:21;7.30;80.80
76613;DHT22;65507;48.454;-2.058;2022-12-18T16:32:47;7.30;80.80
76613;DHT22;65507;48.454;-2.058;2022-12-18T16:35:14;7.30;80.70
76613;DHT22;65507;48.454;-2.058;2022-12-18T16:37:40;7.40;80.80
76613;DHT22;65507;48.454;-2.058;2022-12-18T16:40:09;7.40;80.70
76613;DHT22;65507;48.454;-2.058;2022-12-18T16:42:36;7.50;80.50
76613;DHT22;65507;48.454;-2.058;2022-12-18T16:45:03;7.50;80.50
76613;DHT22;65507;48.454;-2.058;2022-12-18T16:47:29;7.60;80.50
76613;DHT22;65507;48.454;-2.058;2022-12-18T16:49:55;7.60;80.50
76613;DHT22;65507;48.454;-2.058;2022-12-18T16:52:21;7.70;80.50
76613;DHT22;65507;48.454;-2.058;2022-12-18T16:54:47;7.80;80.60
76613;DHT22;65507;48.454;-2.058;2022-12-18T16:57:15;7.80;80.60
76613;DHT22;65507;48.454;-2.058;2022-12-18T16:59:41;7.80;80.60
76613;DHT22;65507;48.454;-2.058;2022-12-18T17:02:21;7.90;80.70
76613;DHT22;65507;48.454;-2.058;2022-12-18T17:04:48;8.00;80.70
76613;DHT22;65507;48.454;-2.058;2022-12-18T17:07:14;8.00;80.50
76613;DHT22;65507;48.454;-2.058;2022-12-18T17:09:40;8.10;80.50
76613;DHT22;65507;48.454;-2.058;2022-12-18T17:12:07;8.10;80.50
76613;DHT22;65507;48.454;-2.058;2022-12-18T17:14:33;8.20;80.60
76613;DHT22;65507;48.454;-2.058;2022-12-18T17:16:59;8.20;80.60
76613;DHT22;65507;48.454;-2.058;2022-12-18T17:19:26;8.30;80.60
76613;DHT22;65507;48.454;-2.058;2022-12-18T17:21:52;8.30;80.70
76613;DHT22;65507;48.454;-2.058;2022-12-18T17:24:19;8.30;80.70
76613;DHT22;65507;48.454;-2.058;2022-12-18T17:26:45;8.40;80.70
76613;DHT22;65507;48.454;-2.058;2022-12-18T17:29:15;8.40;80.80
76613;DHT22;65507;48.454;-2.058;2022-12-18T17:31:41;8.50;80.80
76613;DHT22;65507;48.454;-2.058;2022-12-18T17:34:09;8.50;80.80
76613;DHT22;65507;48.454;-2.058;2022-12-18T17:36:35;8.60;80.90
76613;DHT22;65507;48.454;-2.058;2022-12-18T17:39:02;8.60;80.80
76613;DHT22;65507;48.454;-2.058;2022-12-18T17:41:29;8.60;80.80